Time;durP1;ratioP1;P1;durP2;ratioP2;P2;SDS_P1;SDS_P2;PMS_P1;PMS_P2;Temp;Humidity;BMP_temperature;BMP_pressure;BME280_temperature;BME280_humidity;BME280_pressure;Samples;Min_cycle;Max_cycle;Signal;HPM_P1;HPM_P2
2022/03/11 00:00:17;;;;;;;16.13;11.75;;;3.10;81.90;;;;;;4989235;28;20028;-47
2022/03/11 00:03:01;;;;;;;17.67;11.60;;;3.10;81.50;;;;;;4993558;28;20045;-46
2022/03/11 00:05:45;;;;;;;17.83;11.23;;;3.20;81.30;;;;;;4991539;28;20101;-45
2022/03/11 00:08:30;;;;;;;16.73;11.32;;;3.10;80.90;;;;;;4997908;28;20053;-47
2022/03/11 00:11:15;;;;;;;15.40;10.93;;;3.10;80.70;;;;;;4996356;28;20045;-50
2022/03/11 00:13:59;;;;;;;15.35;10.20;;;3.10;80.80;;;;;;4999181;28;20045;-48
2022/03/11 00:16:43;;;;;;;16.10;10.95;;;3.10;80.20;;;;;;5006694;28;20041;-51
2022/03/11 00:19:27;;;;;;;17.13;10.95;;;3.10;80.40;;;;;;5000058;28;20037;-53
2022/03/11 00:22:11;;;;;;;15.70;10.95;;;3.10;79.90;;;;;;4993656;28;20106;-54
2022/03/11 00:24:55;;;;;;;15.95;10.20;;;3.00;80.10;;;;;;4991859;28;20057;-48
2022/03/11 00:27:40;;;;;;;16.27;11.25;;;3.00;79.90;;;;;;4992794;28;20049;-48
2022/03/11 00:30:26;;;;;;;15.43;10.77;;;3.00;79.70;;;;;;5007343;28;20041;-48
2022/03/11 00:33:10;;;;;;;;;;;3.10;79.10;;;;;;4992329;28;20414;-47
2022/03/11 00:35:54;;;;;;;14.70;10.43;;;3.10;79.10;;;;;;4993289;28;20444;-50
2022/03/11 00:38:38;;;;;;;15.27;10.35;;;3.00;78.80;;;;;;4989300;28;20116;-45
2022/03/11 00:41:22;;;;;;;14.45;10.90;;;3.00;78.70;;;;;;4993696;28;20051;-45
2022/03/11 00:44:07;;;;;;;15.98;10.68;;;2.90;78.70;;;;;;4993626;28;20052;-45
2022/03/11 00:46:51;;;;;;;16.58;10.88;;;2.90;78.90;;;;;;4994211;28;20509;-49
2022/03/11 00:49:36;;;;;;;16.70;10.75;;;2.90;78.40;;;;;;4990447;28;20106;-46
2022/03/11 00:52:21;;;;;;;18.25;10.80;;;3.00;78.30;;;;;;5000041;28;20470;-48
2022/03/11 00:55:06;;;;;;;19.15;10.60;;;3.00;77.80;;;;;;4993390;28;20114;-49
2022/03/11 00:57:50;;;;;;;16.30;10.07;;;2.90;78.10;;;;;;4993647;28;20041;-45
2022/03/11 01:00:34;;;;;;;14.63;10.13;;;2.90;77.80;;;;;;4990708;28;20077;-46
2022/03/11 01:03:18;;;;;;;20.93;11.47;;;2.80;78.40;;;;;;4992576;28;20041;-50
2022/03/11 01:06:02;;;;;;;14.95;10.27;;;2.80;77.90;;;;;;4993140;28;20101;-46
2022/03/11 01:08:46;;;;;;;17.75;11.38;;;2.70;77.90;;;;;;4996793;28;20088;-45
2022/03/11 01:11:30;;;;;;;17.70;11.52;;;2.70;78.30;;;;;;4989100;28;20574;-46
2022/03/11 01:14:15;;;;;;;17.05;11.27;;;2.70;78.20;;;;;;5004219;28;20037;-48
2022/03/11 01:16:59;;;;;;;15.98;10.07;;;2.70;78.20;;;;;;4999550;28;20037;-51
2022/03/11 01:19:43;;;;;;;15.52;10.40;;;2.70;78.10;;;;;;4988841;28;20057;-51
2022/03/11 01:22:27;;;;;;;17.02;10.98;;;2.60;78.30;;;;;;4989370;28;20394;-52
2022/03/11 01:25:11;;;;;;;17.15;11.00;;;2.60;78.40;;;;;;4995344;28;20053;-49
2022/03/11 01:27:55;;;;;;;17.02;10.95;;;2.60;78.60;;;;;;4993392;28;20080;-54
2022/03/11 01:30:40;;;;;;;15.57;11.05;;;2.60;78.60;;;;;;4991216;28;20100;-50
2022/03/11 01:33:24;;;;;;;17.63;10.20;;;2.60;79.40;;;;;;4991720;28;20398;-48
2022/03/11 01:36:10;;;;;;;18.13;10.50;;;2.60;79.30;;;;;;4993590;28;20743;-47
2022/03/11 01:38:56;;;;;;;18.33;11.10;;;2.60;79.20;;;;;;5002947;28;20041;-48
2022/03/11 01:41:41;;;;;;;17.15;11.35;;;2.50;79.40;;;;;;4992613;28;20048;-51
2022/03/11 01:44:26;;;;;;;16.95;11.40;;;2.50;79.70;;;;;;4992502;28;20041;-50
2022/03/11 01:47:10;;;;;;;14.02;9.77;;;2.50;80.30;;;;;;4992920;28;20508;-51
2022/03/11 01:49:54;;;;;;;18.75;11.43;;;2.50;79.90;;;;;;4992509;28;20529;-51
2022/03/11 01:52:38;;;;;;;16.45;11.05;;;2.50;79.70;;;;;;4989410;28;20053;-51
2022/03/11 01:55:22;;;;;;;19.73;11.55;;;2.40;79.90;;;;;;4998384;28;20084;-49
2022/03/11 01:58:08;;;;;;;16.95;10.93;;;2.30;80.30;;;;;;4994829;28;20449;-50
2022/03/11 02:00:52;;;;;;;14.18;9.93;;;2.20;80.20;;;;;;4999152;28;20026;-51
2022/03/11 02:03:37;;;;;;;16.83;11.35;;;2.20;80.80;;;;;;4987945;28;20045;-52
2022/03/11 02:06:22;;;;;;;19.40;11.98;;;2.00;80.60;;;;;;4992419;28;20025;-50
2022/03/11 02:09:06;;;;;;;17.33;11.40;;;2.10;81.00;;;;;;4991626;28;20048;-47
2022/03/11 02:11:50;;;;;;;16.92;11.68;;;2.10;80.60;;;;;;4991779;28;20022;-51
2022/03/11 02:14:34;;;;;;;16.67;10.73;;;2.00;80.90;;;;;;4992865;28;20083;-49
2022/03/11 02:17:18;;;;;;;18.85;11.48;;;2.10;81.10;;;;;;4992081;28;20445;-46
2022/03/11 02:20:03;;;;;;;18.77;11.50;;;2.10;81.20;;;;;;4992150;28;20077;-48
2022/03/11 02:22:52;;;;;;;19.58;12.48;;;1.90;81.00;;;;;;4995405;28;20037;-47
2022/03/11 02:25:35;;;;;;;17.90;11.57;;;1.90;81.60;;;;;;4988755;28;20045;-48
2022/03/11 02:28:20;;;;;;;20.27;11.73;;;1.90;81.90;;;;;;4991075;28;20033;-50
2022/03/11 02:31:04;;;;;;;18.70;11.35;;;1.90;81.60;;;;;;4992078;28;20068;-52
2022/03/11 02:33:49;;;;;;;17.58;11.40;;;1.80;81.80;;;;;;4991451;28;20049;-48
2022/03/11 02:36:33;;;;;;;16.77;11.52;;;1.80;82.50;;;;;;4991252;28;20114;-50
2022/03/11 02:39:17;;;;;;;21.10;11.88;;;1.80;82.10;;;;;;4992143;28;20073;-51
2022/03/11 02:42:03;;;;;;;17.48;10.68;;;1.70;82.50;;;;;;4992362;28;20104;-50
2022/03/11 02:44:47;;;;;;;17.65;11.15;;;1.70;82.40;;;;;;4996472;28;20037;-48
2022/03/11 02:47:32;;;;;;;18.70;11.37;;;1.60;82.60;;;;;;4986008;28;20049;-50
2022/03/11 02:50:16;;;;;;;17.48;10.07;;;1.60;82.60;;;;;;4992468;28;20080;-47
2022/03/11 02:53:00;;;;;;;23.30;12.25;;;1.60;82.40;;;;;;4993715;28;20045;-46
2022/03/11 02:55:44;;;;;;;18.48;11.93;;;1.50;83.10;;;;;;4986680;28;20030;-47
2022/03/11 02:58:28;;;;;;;17.15;11.55;;;1.40;83.90;;;;;;4988541;28;20105;-47
2022/03/11 03:01:12;;;;;;;19.33;12.15;;;1.40;83.50;;;;;;4991572;28;20033;-47
2022/03/11 03:03:56;;;;;;;21.02;11.30;;;1.50;83.40;;;;;;4994832;28;20093;-47
2022/03/11 03:06:40;;;;;;;15.73;11.05;;;1.40;83.60;;;;;;4995160;28;20120;-48
2022/03/11 03:09:25;;;;;;;18.37;11.53;;;1.40;83.50;;;;;;4995586;28;20129;-47
2022/03/11 03:12:10;;;;;;;16.70;10.82;;;1.30;83.70;;;;;;4994980;28;20069;-46
2022/03/11 03:14:54;;;;;;;20.55;11.55;;;1.30;84.10;;;;;;4994345;28;20537;-46
2022/03/11 03:17:38;;;;;;;21.33;12.13;;;1.30;83.10;;;;;;4995691;28;20049;-50
2022/03/11 03:20:22;;;;;;;15.32;10.18;;;1.30;83.50;;;;;;4995084;28;20042;-53
2022/03/11 03:23:06;;;;;;;17.63;11.35;;;1.30;83.60;;;;;;4994929;28;20149;-49
2022/03/11 03:25:50;;;;;;;18.30;10.93;;;1.20;83.30;;;;;;4994330;28;20040;-54
2022/03/11 03:28:34;;;;;;;17.88;11.40;;;1.20;83.10;;;;;;5008327;28;20037;-50
2022/03/11 03:31:19;;;;;;;19.83;11.55;;;1.20;83.40;;;;;;4995125;28;20153;-49
2022/03/11 03:34:03;;;;;;;17.05;11.05;;;1.20;83.10;;;;;;4994607;28;20041;-48
2022/03/11 03:36:47;;;;;;;17.20;11.43;;;1.10;82.90;;;;;;4995599;28;20097;-44
2022/03/11 03:39:31;;;;;;;19.25;11.48;;;1.10;82.80;;;;;;4995085;28;20037;-46
2022/03/11 03:42:15;;;;;;;19.27;11.60;;;1.00;82.80;;;;;;4980783;28;20085;-47
2022/03/11 03:44:59;;;;;;;16.13;11.00;;;1.10;82.30;;;;;;4989014;28;20042;-46
2022/03/11 03:47:43;;;;;;;15.80;10.75;;;1.00;82.20;;;;;;5008192;28;20053;-46
2022/03/11 03:50:29;;;;;;;17.92;10.90;;;1.00;82.50;;;;;;4994589;28;20071;-46
2022/03/11 03:53:14;;;;;;;17.08;10.82;;;1.00;82.20;;;;;;4994355;28;20540;-54
2022/03/11 03:55:58;;;;;;;;;;;1.00;82.70;;;;;;4995107;28;20081;-47
2022/03/11 03:58:42;;;;;;;20.77;10.60;;;1.00;82.50;;;;;;4995301;28;19917;-45
2022/03/11 04:01:26;;;;;;;18.10;10.40;;;1.00;81.70;;;;;;4994508;28;20065;-45
2022/03/11 04:04:11;;;;;;;16.55;10.20;;;0.90;82.10;;;;;;4994144;28;20512;-45
2022/03/11 04:06:55;;;;;;;20.35;10.23;;;1.00;82.10;;;;;;4994652;28;20177;-52
2022/03/11 04:09:39;;;;;;;19.05;10.93;;;0.90;81.90;;;;;;4993771;28;20040;-49
2022/03/11 04:12:24;;;;;;;19.63;10.40;;;0.90;81.80;;;;;;4993273;28;20134;-46
2022/03/11 04:15:08;;;;;;;16.52;10.70;;;0.90;81.80;;;;;;4994908;28;20053;-48
2022/03/11 04:17:53;;;;;;;15.27;9.85;;;0.80;81.80;;;;;;4975313;28;20049;-46
2022/03/11 04:20:37;;;;;;;17.30;10.70;;;0.80;81.60;;;;;;4981079;28;20037;-46
2022/03/11 04:23:21;;;;;;;17.13;10.80;;;0.80;81.80;;;;;;4994049;28;20418;-47
2022/03/11 04:26:05;;;;;;;18.98;9.98;;;0.80;81.60;;;;;;4994326;28;20601;-45
2022/03/11 04:28:49;;;;;;;16.90;9.93;;;0.80;81.50;;;;;;4994615;28;20048;-48
2022/03/11 04:31:33;;;;;;;17.30;11.30;;;0.80;81.30;;;;;;4994150;28;20045;-46
2022/03/11 04:34:18;;;;;;;17.93;10.33;;;0.70;81.20;;;;;;4993718;28;20053;-50
2022/03/11 04:37:02;;;;;;;19.23;10.50;;;0.70;81.10;;;;;;4994298;28;20041;-46
2022/03/11 04:39:46;;;;;;;17.27;11.50;;;0.70;80.90;;;;;;4994022;28;20509;-49
2022/03/11 04:42:30;;;;;;;16.92;9.75;;;0.80;80.80;;;;;;4992136;28;20053;-52
2022/03/11 04:45:14;;;;;;;17.77;10.38;;;0.70;81.00;;;;;;4994299;28;20108;-51
2022/03/11 04:47:59;;;;;;;16.10;10.40;;;0.80;80.40;;;;;;5006367;28;20088;-48
2022/03/11 04:50:43;;;;;;;18.17;9.88;;;0.70;80.60;;;;;;4993527;28;20049;-48
2022/03/11 04:53:27;;;;;;;15.57;9.98;;;0.60;80.50;;;;;;4993123;28;20048;-48
2022/03/11 04:56:12;;;;;;;19.85;10.43;;;0.70;80.60;;;;;;4974330;28;20098;-50
2022/03/11 04:58:56;;;;;;;16.85;9.93;;;0.60;80.30;;;;;;4977629;28;20490;-46
2022/03/11 05:01:40;;;;;;;17.60;10.30;;;0.70;80.40;;;;;;4993469;28;20112;-46
2022/03/11 05:04:24;;;;;;;15.60;9.88;;;0.60;80.40;;;;;;4991568;28;20037;-46
2022/03/11 05:07:08;;;;;;;16.63;9.93;;;0.60;81.00;;;;;;4993445;28;20084;-45
2022/03/11 05:09:52;;;;;;;17.38;10.68;;;0.60;80.00;;;;;;4993453;28;20092;-45
2022/03/11 05:12:37;;;;;;;15.63;9.90;;;0.60;80.10;;;;;;4993199;28;20040;-44
2022/03/11 05:15:24;;;;;;;;;;;0.50;79.90;;;;;;4992453;28;20544;-49
2022/03/11 05:18:08;;;;;;;17.33;9.48;;;0.50;80.30;;;;;;4993205;28;19920;-47
2022/03/11 05:20:52;;;;;;;17.05;9.10;;;0.50;80.40;;;;;;4990233;28;20057;-45
2022/03/11 05:23:37;;;;;;;15.52;9.60;;;0.50;79.90;;;;;;4992390;28;20041;-45
2022/03/11 05:26:28;;;;;;;17.48;9.98;;;0.60;79.50;;;;;;4990414;28;20142;-48
2022/03/11 05:29:12;;;;;;;15.07;9.40;;;0.60;79.40;;;;;;4992935;28;20080;-50
2022/03/11 05:31:56;;;;;;;14.93;9.50;;;0.60;79.10;;;;;;4992941;28;20116;-49
2022/03/11 05:34:42;;;;;;;17.83;10.45;;;0.50;79.20;;;;;;4991353;28;20088;-48
2022/03/11 05:37:26;;;;;;;18.75;9.57;;;0.50;79.00;;;;;;4992930;28;20080;-53
2022/03/11 05:40:11;;;;;;;19.30;10.10;;;0.50;78.70;;;;;;4992648;28;20532;-53
2022/03/11 05:42:55;;;;;;;17.55;10.20;;;0.50;78.20;;;;;;5005327;28;20394;-46
2022/03/11 05:45:41;;;;;;;17.25;9.10;;;0.50;78.80;;;;;;4991423;28;20506;-48
2022/03/11 05:48:25;;;;;;;16.48;9.07;;;0.40;78.60;;;;;;5005634;28;20076;-48
2022/03/11 05:51:10;;;;;;;17.45;10.48;;;0.50;79.00;;;;;;4992944;28;20033;-46
2022/03/11 05:53:54;;;;;;;16.80;10.70;;;0.50;78.30;;;;;;4991725;28;20081;-46
2022/03/11 05:56:38;;;;;;;15.88;9.50;;;0.50;78.00;;;;;;4990593;28;20061;-50
2022/03/11 05:59:22;;;;;;;16.35;9.07;;;0.60;77.70;;;;;;4987898;28;20054;-52
2022/03/11 06:02:06;;;;;;;18.10;9.90;;;0.60;77.40;;;;;;4991921;28;20042;-50
2022/03/11 06:04:50;;;;;;;17.00;10.27;;;0.60;77.20;;;;;;4992151;28;20096;-52
2022/03/11 06:07:35;;;;;;;14.85;9.05;;;0.60;77.60;;;;;;4995405;28;20049;-48
2022/03/11 06:10:19;;;;;;;17.45;9.70;;;0.60;77.40;;;;;;4979095;28;20058;-54
2022/03/11 06:13:03;;;;;;;16.75;8.95;;;0.70;77.10;;;;;;4980692;28;20045;-51
2022/03/11 06:15:47;;;;;;;15.60;10.00;;;0.80;77.10;;;;;;5009210;28;20122;-49
2022/03/11 06:18:32;;;;;;;18.60;9.80;;;0.80;76.40;;;;;;4996502;28;20094;-53
2022/03/11 06:21:16;;;;;;;15.35;9.23;;;0.80;76.00;;;;;;4993374;28;20049;-48
2022/03/11 06:24:00;;;;;;;17.27;9.52;;;0.90;75.70;;;;;;4972653;28;20106;-49
2022/03/11 06:26:44;;;;;;;16.15;9.25;;;0.90;75.20;;;;;;4973063;28;20093;-48
2022/03/11 06:29:28;;;;;;;16.25;9.38;;;0.90;74.90;;;;;;4976476;28;20033;-52
2022/03/11 06:32:12;;;;;;;16.38;9.25;;;0.90;74.40;;;;;;4985820;28;20046;-53
2022/03/11 06:34:57;;;;;;;25.13;9.73;;;1.00;74.00;;;;;;4992151;28;20088;-52
2022/03/11 06:37:46;;;;;;;16.55;10.07;;;0.90;73.70;;;;;;4997936;28;20446;-49
2022/03/11 06:40:30;;;;;;;13.43;8.43;;;1.00;73.80;;;;;;4998868;28;20720;-46
2022/03/11 06:43:15;;;;;;;16.45;9.95;;;1.00;73.40;;;;;;4998089;28;20033;-46
2022/03/11 06:45:59;;;;;;;17.75;9.30;;;1.00;73.10;;;;;;4999166;28;20045;-49
2022/03/11 06:48:43;;;;;;;15.30;9.07;;;1.10;72.70;;;;;;4988794;28;20041;-48
2022/03/11 06:51:27;;;;;;;18.13;9.40;;;1.20;72.40;;;;;;4997452;28;20042;-48
2022/03/11 06:54:11;;;;;;;16.52;8.98;;;1.20;71.70;;;;;;4997688;28;20029;-50
2022/03/11 06:56:56;;;;;;;17.80;11.57;;;1.20;71.90;;;;;;5010858;28;20117;-53
2022/03/11 06:59:40;;;;;;;14.35;8.18;;;1.30;71.60;;;;;;4998340;28;20109;-46
2022/03/11 07:02:24;;;;;;;17.55;9.10;;;1.40;70.80;;;;;;4997891;28;20045;-46
2022/03/11 07:05:09;;;;;;;15.13;9.05;;;1.50;70.10;;;;;;4990475;28;20089;-49
2022/03/11 07:07:53;;;;;;;;;;;1.50;69.70;;;;;;4996885;28;20411;-50
2022/03/11 07:10:38;;;;;;;18.17;9.75;;;1.60;69.30;;;;;;4998518;28;19921;-49
2022/03/11 07:13:22;;;;;;;17.13;9.93;;;1.60;68.80;;;;;;4999763;28;20706;-49
2022/03/11 07:16:06;;;;;;;18.63;9.10;;;1.70;68.60;;;;;;4997417;28;20122;-48
2022/03/11 07:18:53;;;;;;;19.58;9.93;;;1.80;68.00;;;;;;4998860;28;20107;-50
2022/03/11 07:21:38;;;;;;;16.95;8.70;;;1.80;67.90;;;;;;4983342;28;20046;-49
2022/03/11 07:24:22;;;;;;;18.67;8.90;;;1.80;67.80;;;;;;5011522;28;20477;-53
2022/03/11 07:27:06;;;;;;;18.88;9.45;;;1.80;67.30;;;;;;4997892;28;20134;-52
2022/03/11 07:29:51;;;;;;;18.10;8.82;;;1.90;67.00;;;;;;4998149;28;20505;-52
2022/03/11 07:32:35;;;;;;;23.27;9.32;;;2.10;66.90;;;;;;4980415;28;20193;-52
2022/03/11 07:35:19;;;;;;;20.17;10.32;;;2.20;66.80;;;;;;4992604;28;20041;-52
2022/03/11 07:38:03;;;;;;;16.95;9.35;;;2.20;66.30;;;;;;5005941;28;20066;-48
2022/03/11 07:40:47;;;;;;;21.98;9.90;;;2.10;65.40;;;;;;5008746;28;20089;-48
2022/03/11 07:43:31;;;;;;;13.18;8.43;;;2.20;66.00;;;;;;4993292;28;20112;-49
2022/03/11 07:46:16;;;;;;;20.48;9.70;;;2.20;65.60;;;;;;4997104;28;20042;-48
2022/03/11 07:49:01;;;;;;;18.00;9.82;;;2.20;64.90;;;;;;5004129;28;20524;-48
2022/03/11 07:51:45;;;;;;;17.98;9.40;;;2.40;64.60;;;;;;4993803;28;20057;-54
2022/03/11 07:54:29;;;;;;;17.42;10.82;;;2.40;65.00;;;;;;5006486;28;20382;-53
2022/03/11 07:57:14;;;;;;;18.57;9.50;;;2.50;65.00;;;;;;4993905;28;20036;-49
2022/03/11 08:00:00;;;;;;;18.83;9.23;;;2.60;64.00;;;;;;4998194;28;20537;-47
2022/03/11 08:02:44;;;;;;;16.08;9.73;;;2.60;64.40;;;;;;4988419;28;20057;-46
2022/03/11 08:05:29;;;;;;;19.17;9.70;;;2.70;64.40;;;;;;4984132;28;20105;-50
2022/03/11 08:08:14;;;;;;;20.40;9.50;;;2.80;63.70;;;;;;4983485;28;20390;-53
2022/03/11 08:10:58;;;;;;;16.40;9.10;;;2.90;64.40;;;;;;4989040;28;20560;-47
2022/03/11 08:13:42;;;;;;;14.65;9.25;;;2.90;63.30;;;;;;4993749;28;20104;-49
2022/03/11 08:16:27;;;;;;;15.07;9.30;;;3.00;62.90;;;;;;4994553;28;20080;-48
2022/03/11 08:19:11;;;;;;;15.43;8.90;;;3.10;62.50;;;;;;4988603;28;20084;-48
2022/03/11 08:21:56;;;;;;;19.90;9.68;;;3.20;61.90;;;;;;4985839;28;20066;-46
2022/03/11 08:24:40;;;;;;;25.27;11.38;;;3.20;61.30;;;;;;4994237;28;20568;-51
2022/03/11 08:27:25;;;;;;;24.27;10.55;;;3.30;60.40;;;;;;4991239;28;20469;-53
2022/03/11 08:30:10;;;;;;;22.58;9.00;;;3.40;59.70;;;;;;4991648;28;20049;-49
2022/03/11 08:32:55;;;;;;;18.55;10.55;;;3.40;60.20;;;;;;4995893;28;20057;-52
2022/03/11 08:35:39;;;;;;;;;;;3.50;59.70;;;;;;4994151;28;20064;-46
2022/03/11 08:38:24;;;;;;;22.25;8.30;;;3.60;59.50;;;;;;4994485;28;19917;-50
2022/03/11 08:41:09;;;;;;;22.63;9.88;;;3.70;59.40;;;;;;4988130;28;20347;-46
2022/03/11 08:43:53;;;;;;;12.38;8.48;;;3.80;59.20;;;;;;4989557;28;20036;-52
2022/03/11 08:46:38;;;;;;;19.27;9.70;;;3.90;59.40;;;;;;4987960;28;20084;-47
2022/03/11 08:49:22;;;;;;;14.38;9.68;;;4.00;58.60;;;;;;4991552;28;20049;-49
2022/03/11 08:52:06;;;;;;;17.02;9.57;;;4.00;58.60;;;;;;4991727;28;20038;-48
2022/03/11 08:54:51;;;;;;;26.95;10.20;;;4.10;58.20;;;;;;4985844;28;20055;-45
2022/03/11 08:57:37;;;;;;;;;;;4.20;58.10;;;;;;4992458;28;20077;-50
2022/03/11 09:00:23;;;;;;;17.48;8.88;;;4.10;58.10;;;;;;4992389;28;19912;-51
2022/03/11 09:03:08;;;;;;;16.73;9.32;;;4.10;58.30;;;;;;4991731;28;20088;-51
2022/03/11 09:05:52;;;;;;;15.95;9.65;;;4.30;56.90;;;;;;4992313;28;20069;-51
2022/03/11 09:08:36;;;;;;;15.82;8.85;;;4.40;56.70;;;;;;4991113;28;20041;-48
2022/03/11 09:11:20;;;;;;;18.05;9.43;;;4.40;56.70;;;;;;4989019;28;20044;-52
2022/03/11 09:14:04;;;;;;;16.10;9.50;;;4.50;56.00;;;;;;4990072;28;20069;-54
2022/03/11 09:16:49;;;;;;;17.45;8.98;;;4.50;56.30;;;;;;4986036;28;20149;-53
2022/03/11 09:19:34;;;;;;;11.60;8.02;;;4.60;56.40;;;;;;4995978;28;20122;-46
2022/03/11 09:22:18;;;;;;;13.38;8.40;;;4.70;56.30;;;;;;4987886;28;20029;-53
2022/03/11 09:25:04;;;;;;;13.45;8.60;;;5.20;66.30;;;;;;4990262;28;20037;-48
2022/03/11 09:27:48;;;;;;;22.27;9.73;;;5.60;60.60;;;;;;4987864;28;20050;-49
2022/03/11 09:30:32;;;;;;;21.35;8.80;;;5.70;56.70;;;;;;4990328;28;20536;-51
2022/03/11 09:33:17;;;;;;;17.15;9.32;;;5.50;55.50;;;;;;4987623;28;20041;-53
2022/03/11 09:36:02;;;;;;;19.92;9.73;;;5.40;56.10;;;;;;4988447;28;20081;-48
2022/03/11 09:38:46;;;;;;;16.52;9.55;;;5.40;55.90;;;;;;4987989;28;20097;-48
2022/03/11 09:41:31;;;;;;;26.42;9.95;;;5.40;56.00;;;;;;4991208;28;20041;-53
2022/03/11 09:44:17;;;;;;;18.60;9.15;;;5.30;56.20;;;;;;4991928;28;20040;-47
2022/03/11 09:47:02;;;;;;;25.17;9.63;;;5.30;56.20;;;;;;4990999;28;20114;-49
2022/03/11 09:49:48;;;;;;;28.65;9.88;;;5.50;55.60;;;;;;4988059;28;20045;-51
2022/03/11 09:52:33;;;;;;;19.30;8.98;;;5.40;55.80;;;;;;4987290;28;20045;-52
2022/03/11 09:55:18;;;;;;;21.65;10.85;;;5.50;56.00;;;;;;4983282;28;20045;-51
2022/03/11 09:58:02;;;;;;;15.38;9.38;;;5.50;55.70;;;;;;4975426;28;20093;-47
2022/03/11 10:00:50;;;;;;;24.00;11.47;;;5.70;55.60;;;;;;4981848;28;20636;-51
2022/03/11 10:03:33;;;;;;;24.85;9.73;;;5.80;54.80;;;;;;5000513;28;20033;-51
2022/03/11 10:06:42;;;;;;;22.33;9.35;;;5.70;54.80;;;;;;4991791;28;20037;-49
2022/03/11 10:09:30;;;;;;;21.10;9.60;;;5.70;55.40;;;;;;4990489;28;20113;-50
2022/03/11 10:12:20;;;;;;;16.05;8.98;;;5.80;55.50;;;;;;4991492;28;20185;-51
2022/03/11 10:15:04;;;;;;;19.02;9.35;;;5.90;55.50;;;;;;4971849;28;20734;-52
2022/03/11 10:17:52;;;;;;;19.17;9.43;;;6.00;55.10;;;;;;4992092;28;20541;-50
2022/03/11 10:20:36;;;;;;;17.27;9.25;;;6.10;55.80;;;;;;4991379;28;20125;-49
2022/03/11 10:23:20;;;;;;;15.95;9.30;;;6.20;54.20;;;;;;4991300;28;20077;-48
2022/03/11 10:26:04;;;;;;;17.52;9.05;;;6.30;54.80;;;;;;4991260;28;20096;-50
2022/03/11 10:28:57;;;;;;;21.70;9.30;;;6.20;54.20;;;;;;4972532;28;20042;-46
2022/03/11 10:31:45;;;;;;;19.75;9.82;;;6.20;54.90;;;;;;4981117;28;20045;-53
2022/03/11 10:34:34;;;;;;;19.63;9.45;;;6.20;55.00;;;;;;5005488;28;20041;-52
2022/03/11 10:37:19;;;;;;;18.25;10.57;;;6.30;54.30;;;;;;4991512;28;20068;-48
2022/03/11 10:40:10;;;;;;;13.95;9.13;;;6.40;54.50;;;;;;5004815;28;20040;-53
2022/03/11 10:43:18;;;;;;;23.02;9.23;;;6.60;53.90;;;;;;4989507;28;20037;-48
2022/03/11 10:46:02;;;;;;;12.98;8.68;;;6.50;53.20;;;;;;4990664;28;20703;-46
2022/03/11 10:48:51;;;;;;;11.02;8.18;;;6.70;52.90;;;;;;4991604;28;20042;-49
2022/03/11 10:51:38;;;;;;;14.25;8.05;;;7.00;53.20;;;;;;4991692;28;20033;-53
2022/03/11 10:54:26;;;;;;;17.67;9.07;;;7.10;52.90;;;;;;4989888;28;20565;-54
2022/03/11 10:57:10;;;;;;;15.43;8.55;;;7.30;53.00;;;;;;4993243;28;20514;-53
2022/03/11 10:59:55;;;;;;;25.20;10.23;;;7.30;52.20;;;;;;5005427;28;20045;-46
2022/03/11 11:02:39;;;;;;;14.32;8.48;;;7.30;52.00;;;;;;4991489;28;20053;-50
2022/03/11 11:05:25;;;;;;;18.60;9.25;;;7.40;52.00;;;;;;4989438;28;20041;-46
2022/03/11 11:08:09;;;;;;;15.13;8.68;;;7.40;51.80;;;;;;4991493;28;20064;-49
2022/03/11 11:10:54;;;;;;;14.68;8.68;;;7.50;51.50;;;;;;4991404;28;20512;-44
2022/03/11 11:13:38;;;;;;;17.98;9.30;;;7.50;51.20;;;;;;4990598;28;20548;-47
2022/03/11 11:16:26;;;;;;;15.93;9.45;;;7.50;50.90;;;;;;4991074;28;20045;-53
2022/03/11 11:19:19;;;;;;;15.35;8.52;;;7.50;51.20;;;;;;4991003;28;20181;-48
2022/03/11 11:22:04;;;;;;;38.97;13.00;;;7.60;51.00;;;;;;4990674;28;20033;-53
2022/03/11 11:24:52;;;;;;;21.45;9.07;;;7.80;50.60;;;;;;5007474;28;20069;-46
2022/03/11 11:27:37;;;;;;;46.45;10.60;;;7.90;50.90;;;;;;4993807;28;20108;-53
2022/03/11 11:30:24;;;;;;;16.00;8.23;;;7.90;50.20;;;;;;4994858;28;20068;-52
2022/03/11 11:33:09;;;;;;;17.70;9.25;;;8.00;49.50;;;;;;4993280;28;20053;-52
2022/03/11 11:35:56;;;;;;;;;;;8.10;50.10;;;;;;4975894;28;20045;-53
2022/03/11 11:38:43;;;;;;;16.33;8.10;;;8.20;49.70;;;;;;4992240;28;20005;-52
2022/03/11 11:41:27;;;;;;;14.55;7.60;;;8.40;49.30;;;;;;4987892;28;20103;-47
2022/03/11 11:44:16;;;;;;;14.25;8.27;;;8.50;47.80;;;;;;4980333;28;20093;-51
2022/03/11 11:47:08;;;;;;;14.10;8.13;;;8.40;47.40;;;;;;4994923;28;20430;-51
2022/03/11 11:49:55;;;;;;;24.17;8.30;;;8.40;46.90;;;;;;4994498;28;20049;-46
2022/03/11 11:52:39;;;;;;;17.02;8.10;;;8.50;47.10;;;;;;4994789;28;20161;-47
2022/03/11 11:55:23;;;;;;;13.03;7.43;;;8.80;45.90;;;;;;4994410;28;20045;-45
2022/03/11 11:58:22;;;;;;;19.23;7.03;;;8.80;45.00;;;;;;4996773;28;20125;-46
2022/03/11 12:01:07;;;;;;;16.67;6.90;;;8.80;43.10;;;;;;4998584;28;20088;-56
2022/03/11 12:03:51;;;;;;;10.30;6.55;;;8.90;42.60;;;;;;4999214;28;20041;-53
2022/03/11 12:06:59;;;;;;;38.40;9.55;;;8.90;41.60;;;;;;4998426;28;20506;-51
2022/03/11 12:09:53;;;;;;;26.30;7.40;;;9.10;40.80;;;;;;4993975;28;20038;-47
2022/03/11 12:12:38;;;;;;;37.55;8.68;;;9.20;40.60;;;;;;5007544;28;20033;-46
2022/03/11 12:15:22;;;;;;;10.20;6.00;;;9.20;39.50;;;;;;4993716;28;20060;-53
2022/03/11 12:18:34;;;;;;;16.50;6.80;;;9.20;40.10;;;;;;4994335;28;20081;-49
2022/03/11 12:21:45;;;;;;;37.30;15.50;;;9.20;40.40;;;;;;4993071;28;20057;-45
2022/03/11 12:24:36;;;;;;;20.88;7.60;;;9.30;39.80;;;;;;4991666;28;20038;-49
2022/03/11 12:27:58;;;;;;;38.83;7.30;;;9.30;40.20;;;;;;4993446;28;20501;-48
2022/03/11 12:30:48;;;;;;;17.33;7.13;;;9.30;39.80;;;;;;5007098;28;20041;-47
2022/03/11 12:33:38;;;;;;;53.13;10.73;;;9.30;39.80;;;;;;4992901;28;20037;-47
2022/03/11 12:36:24;;;;;;;60.70;12.88;;;9.40;40.80;;;;;;4993067;28;20045;-47
2022/03/11 12:39:09;;;;;;;16.65;7.10;;;9.50;40.40;;;;;;4994338;28;20042;-46
2022/03/11 12:41:53;;;;;;;10.65;6.45;;;9.50;40.40;;;;;;4992496;28;20092;-54
2022/03/11 12:44:46;;;;;;;22.33;8.05;;;9.50;40.90;;;;;;5007129;28;20100;-52
2022/03/11 12:47:39;;;;;;;24.00;7.50;;;9.70;41.30;;;;;;5009076;28;20445;-46
2022/03/11 12:50:23;;;;;;;19.05;7.72;;;9.90;40.90;;;;;;4993667;28;20114;-48
2022/03/11 12:53:09;;;;;;;23.33;8.20;;;9.90;41.20;;;;;;4993557;28;20105;-52
2022/03/11 12:55:55;;;;;;;18.40;7.95;;;9.90;41.40;;;;;;4995148;28;20192;-53
2022/03/11 12:58:40;;;;;;;18.08;8.75;;;9.90;42.20;;;;;;4992970;28;20521;-50
2022/03/11 13:01:24;;;;;;;15.20;7.43;;;10.10;42.60;;;;;;4993510;28;20041;-51
2022/03/11 13:04:11;;;;;;;18.05;8.27;;;10.20;43.50;;;;;;4992926;28;20053;-52
2022/03/11 13:07:02;;;;;;;20.48;9.05;;;10.40;43.70;;;;;;5005690;28;20093;-49
2022/03/11 13:09:48;;;;;;;21.98;8.60;;;10.50;44.00;;;;;;4992422;28;20037;-52
2022/03/11 13:12:37;;;;;;;26.63;8.30;;;10.30;43.50;;;;;;4991596;28;20033;-50
2022/03/11 13:15:24;;;;;;;29.63;9.45;;;10.20;44.00;;;;;;4993307;28;20149;-52
2022/03/11 13:18:10;;;;;;;11.25;7.65;;;10.20;45.00;;;;;;4991085;28;20049;-46
2022/03/11 13:21:08;;;;;;;28.50;9.48;;;10.40;45.40;;;;;;4993114;28;20030;-48
2022/03/11 13:23:54;;;;;;;13.88;8.75;;;10.40;45.10;;;;;;4991497;28;20053;-51
2022/03/11 13:26:39;;;;;;;15.38;8.25;;;10.30;45.10;;;;;;5005533;28;20040;-49
2022/03/11 13:29:24;;;;;;;21.25;8.43;;;10.40;45.00;;;;;;4992593;28;20045;-52
2022/03/11 13:32:09;;;;;;;13.15;7.95;;;10.40;44.90;;;;;;4991755;28;20505;-45
2022/03/11 13:34:53;;;;;;;17.52;8.25;;;10.50;45.10;;;;;;4975609;28;20045;-49
2022/03/11 13:37:41;;;;;;;23.52;9.45;;;10.60;44.90;;;;;;4983625;28;20106;-47
2022/03/11 13:40:26;;;;;;;21.60;9.40;;;10.70;45.20;;;;;;4993056;28;20037;-48
2022/03/11 13:43:10;;;;;;;27.80;9.50;;;10.70;44.70;;;;;;4986641;28;20452;-48
2022/03/11 13:45:55;;;;;;;15.88;8.10;;;10.70;44.60;;;;;;4990747;28;20126;-52
2022/03/11 13:48:39;;;;;;;21.75;9.43;;;10.70;44.80;;;;;;4992041;28;20061;-48
2022/03/11 13:51:39;;;;;;;30.15;10.50;;;10.80;44.50;;;;;;4993048;28;20049;-47
2022/03/11 13:54:31;;;;;;;19.60;8.20;;;10.90;44.60;;;;;;4986914;28;20049;-51
2022/03/11 13:57:25;;;;;;;11.30;8.15;;;10.90;44.50;;;;;;4992988;28;20081;-46
2022/03/11 14:00:24;;;;;;;12.13;8.43;;;11.00;44.50;;;;;;5005627;28;20397;-47
2022/03/11 14:03:26;;;;;;;15.38;9.50;;;11.20;44.50;;;;;;4991729;28;20630;-47
2022/03/11 14:06:11;;;;;;;17.73;9.82;;;11.30;43.80;;;;;;4991486;28;20040;-51
2022/03/11 14:08:56;;;;;;;17.83;9.30;;;11.30;43.80;;;;;;4989983;28;20105;-52
2022/03/11 14:11:41;;;;;;;16.63;9.73;;;11.30;43.60;;;;;;4989808;28;20406;-46
2022/03/11 14:14:30;;;;;;;15.25;8.90;;;11.20;43.80;;;;;;4986903;28;20057;-53
2022/03/11 14:17:15;;;;;;;13.27;8.88;;;11.30;43.80;;;;;;4991461;28;20033;-46